Time;durP1;ratioP1;P1;durP2;ratioP2;P2;SDS_P1;SDS_P2;PMS_P1;PMS_P2;Temp;Humidity;BMP_temperature;BMP_pressure;BME280_temperature;BME280_humidity;BME280_pressure;Samples;Min_cycle;Max_cycle;Signal;HPM_P1;HPM_P2
2023/03/29 00:00:15;;;;;;;6.50;2.17;;;4.30;62.60;;;;;;5052725;28;20471;-67
2023/03/29 00:02:46;;;;;;;5.35;1.95;;;4.30;62.50;;;;;;5053109;28;20025;-68
2023/03/29 00:05:13;;;;;;;7.75;2.00;;;4.30;62.30;;;;;;5052616;28;20033;-68
2023/03/29 00:07:40;;;;;;;7.57;2.13;;;4.20;62.30;;;;;;5053208;28;20072;-68
2023/03/29 00:10:07;;;;;;;5.38;1.65;;;4.20;62.40;;;;;;5052691;28;20032;-67
2023/03/29 00:12:33;;;;;;;7.60;1.63;;;4.20;62.30;;;;;;5052681;28;20366;-67
2023/03/29 00:14:58;;;;;;;7.47;2.15;;;4.20;62.40;;;;;;5053655;28;20043;-69
2023/03/29 00:17:24;;;;;;;5.00;1.88;;;4.20;62.60;;;;;;5054302;28;20377;-68
2023/03/29 00:19:50;;;;;;;5.38;2.10;;;4.20;62.60;;;;;;5053379;28;20056;-68
2023/03/29 00:22:16;;;;;;;5.55;1.80;;;4.20;62.90;;;;;;5052231;28;20342;-68
2023/03/29 00:25:00;;;;;;;3.90;2.05;;;4.20;62.90;;;;;;5053046;28;20060;-68
2023/03/29 00:27:25;;;;;;;8.20;1.95;;;4.20;62.80;;;;;;5052980;28;20021;-67
2023/03/29 00:29:51;;;;;;;7.95;2.05;;;4.10;62.80;;;;;;5052653;28;20025;-68
2023/03/29 00:32:17;;;;;;;7.30;1.67;;;4.10;62.90;;;;;;5052089;28;20469;-68
2023/03/29 00:34:44;;;;;;;4.45;2.15;;;4.10;62.70;;;;;;5052450;28;20055;-68
2023/03/29 00:37:13;;;;;;;5.93;2.13;;;4.10;62.50;;;;;;5051839;28;20029;-68
2023/03/29 00:39:40;;;;;;;5.82;1.75;;;4.10;62.80;;;;;;5052695;28;20469;-68
2023/03/29 00:42:14;;;;;;;5.40;1.92;;;4.00;62.60;;;;;;5051999;28;20079;-69
2023/03/29 00:45:01;;;;;;;10.35;2.28;;;4.00;62.60;;;;;;5052616;28;20084;-68
2023/03/29 00:47:43;;;;;;;4.68;1.63;;;4.00;62.70;;;;;;5052566;28;20106;-68
2023/03/29 00:50:30;;;;;;;4.70;1.95;;;4.00;62.80;;;;;;5051993;28;20035;-68
2023/03/29 00:53:17;;;;;;;5.55;1.80;;;4.00;63.10;;;;;;5052280;28;20067;-69
2023/03/29 00:55:52;;;;;;;6.80;2.17;;;3.90;63.20;;;;;;5051953;28;20477;-68
2023/03/29 00:58:23;;;;;;;6.20;1.98;;;3.90;63.70;;;;;;5053820;28;20077;-68
2023/03/29 01:01:00;;;;;;;6.70;2.20;;;3.90;63.50;;;;;;5058942;28;20343;-68
2023/03/29 01:03:36;;;;;;;4.93;2.03;;;3.90;63.30;;;;;;5059499;28;20025;-68
2023/03/29 01:06:07;;;;;;;4.97;2.00;;;3.90;63.40;;;;;;5058742;28;20029;-68
2023/03/29 01:08:52;;;;;;;6.68;2.10;;;3.90;63.30;;;;;;5059184;28;20025;-68
2023/03/29 01:11:21;;;;;;;6.18;2.22;;;3.90;63.30;;;;;;5058741;28;20169;-67
2023/03/29 01:13:58;;;;;;;4.93;2.10;;;3.90;63.20;;;;;;5058928;28;20035;-68
2023/03/29 01:16:27;;;;;;;6.05;1.83;;;3.90;63.40;;;;;;5059047;28;20025;-68
2023/03/29 01:18:53;;;;;;;9.98;2.40;;;3.90;63.30;;;;;;5059027;28;20377;-67
2023/03/29 01:21:24;;;;;;;5.70;2.08;;;3.80;63.50;;;;;;5058130;28;20037;-67
2023/03/29 01:24:05;;;;;;;8.05;1.60;;;3.80;63.50;;;;;;5058863;28;20099;-67
2023/03/29 01:26:54;;;;;;;5.60;1.88;;;3.80;63.50;;;;;;5058725;28;20441;-68
2023/03/29 01:29:22;;;;;;;2.78;1.63;;;3.80;63.60;;;;;;5058345;28;20025;-68
2023/03/29 01:32:00;;;;;;;12.73;2.13;;;3.80;63.60;;;;;;5058446;28;20025;-68
2023/03/29 01:34:47;;;;;;;5.43;1.63;;;3.70;63.80;;;;;;5058469;28;20055;-68
2023/03/29 01:37:28;;;;;;;6.85;1.70;;;3.70;64.10;;;;;;5058386;28;20470;-68
2023/03/29 01:39:54;;;;;;;7.55;2.28;;;3.70;64.50;;;;;;5058507;28;20067;-68
2023/03/29 01:42:23;;;;;;;5.75;2.03;;;3.70;64.60;;;;;;5058553;28;20752;-68
2023/03/29 01:45:00;;;;;;;7.38;2.08;;;3.70;65.20;;;;;;5058856;28;20056;-68
2023/03/29 01:47:41;;;;;;;6.32;2.13;;;3.70;65.70;;;;;;5059197;28;20378;-68
2023/03/29 01:50:19;;;;;;;8.13;2.22;;;3.60;65.60;;;;;;5057166;28;20036;-69
2023/03/29 01:53:21;;;;;;;8.10;2.90;;;3.60;65.90;;;;;;5057484;28;20029;-68
2023/03/29 01:55:52;;;;;;;7.57;2.92;;;3.60;66.40;;;;;;5055364;28;20076;-68
2023/03/29 01:58:21;;;;;;;12.25;3.25;;;3.50;66.90;;;;;;5058067;28;20474;-67
2023/03/29 02:00:49;;;;;;;8.18;2.83;;;3.50;67.30;;;;;;5058638;28;20036;-67
2023/03/29 02:03:17;;;;;;;8.10;2.58;;;3.50;68.00;;;;;;5058223;28;20056;-69
2023/03/29 02:05:44;;;;;;;11.85;3.03;;;3.50;67.80;;;;;;5058441;28;20488;-67
2023/03/29 02:08:12;;;;;;;10.25;3.00;;;3.50;67.50;;;;;;5058186;28;20496;-68
2023/03/29 02:10:38;;;;;;;13.05;4.47;;;3.40;67.60;;;;;;5055475;28;20373;-67
2023/03/29 02:13:04;;;;;;;13.13;3.45;;;3.40;67.50;;;;;;5055088;28;20017;-68
2023/03/29 02:15:30;;;;;;;8.57;2.90;;;3.40;67.60;;;;;;5055485;28;20425;-68
2023/03/29 02:17:56;;;;;;;7.70;2.80;;;3.40;68.20;;;;;;5054945;28;20071;-68
2023/03/29 02:20:24;;;;;;;8.57;2.40;;;3.40;68.40;;;;;;5054372;28;20033;-68
2023/03/29 02:23:33;;;;;;;4.97;2.42;;;3.30;68.40;;;;;;5054773;28;20470;-68
2023/03/29 02:25:59;;;;;;;9.68;2.50;;;3.30;67.90;;;;;;5055049;28;20032;-68
2023/03/29 02:28:27;;;;;;;5.50;2.60;;;3.30;67.40;;;;;;5054253;28;20040;-67
2023/03/29 02:31:04;;;;;;;7.07;2.58;;;3.30;67.20;;;;;;5055109;28;20036;-68
2023/03/29 02:33:46;;;;;;;5.45;2.28;;;3.20;67.10;;;;;;5055428;28;20024;-69
2023/03/29 02:36:17;;;;;;;5.72;2.10;;;3.20;67.30;;;;;;5054326;28;20029;-68
2023/03/29 02:38:42;;;;;;;;;;;3.20;67.40;;;;;;5055600;28;20446;-68
2023/03/29 02:41:09;;;;;;;10.38;3.42;;;3.20;67.60;;;;;;5054046;28;19948;-66
2023/03/29 02:43:36;;;;;;;5.03;2.00;;;3.20;67.80;;;;;;5054522;28;20128;-68
2023/03/29 02:46:05;;;;;;;6.25;1.95;;;3.20;67.80;;;;;;5054483;28;20025;-67
2023/03/29 02:48:32;;;;;;;5.07;2.05;;;3.10;67.70;;;;;;5054438;28;20025;-68
2023/03/29 02:51:03;;;;;;;4.47;2.08;;;3.10;67.70;;;;;;5054717;28;20091;-68
2023/03/29 02:53:32;;;;;;;;;;;3.10;67.90;;;;;;5054341;28;20492;-68
2023/03/29 02:56:01;;;;;;;9.30;2.47;;;3.10;68.00;;;;;;5054578;28;19919;-68
2023/03/29 02:58:27;;;;;;;4.90;2.42;;;3.10;68.00;;;;;;5054103;28;20029;-68
2023/03/29 03:00:55;;;;;;;8.85;2.58;;;3.10;68.10;;;;;;5054453;28;20090;-68
2023/03/29 03:03:21;;;;;;;7.43;2.10;;;3.10;68.10;;;;;;5054027;28;20021;-68
2023/03/29 03:05:47;;;;;;;6.95;2.22;;;3.10;68.40;;;;;;5054058;28;20338;-67
2023/03/29 03:08:13;;;;;;;11.07;2.95;;;3.00;68.20;;;;;;5053894;28;20033;-68
2023/03/29 03:10:39;;;;;;;8.23;2.00;;;3.00;68.30;;;;;;5054501;28;20518;-68
2023/03/29 03:13:05;;;;;;;6.93;2.30;;;3.00;68.30;;;;;;5054173;28;20025;-68
2023/03/29 03:15:34;;;;;;;7.18;2.15;;;3.00;68.10;;;;;;5053561;28;20045;-67
2023/03/29 03:18:02;;;;;;;9.07;2.65;;;3.00;67.90;;;;;;5054067;28;20029;-67
2023/03/29 03:20:27;;;;;;;9.25;2.60;;;3.00;67.90;;;;;;5053452;28;20420;-67
2023/03/29 03:22:53;;;;;;;9.60;2.30;;;3.00;68.10;;;;;;5053812;28;20032;-68
2023/03/29 03:25:20;;;;;;;7.60;2.85;;;3.00;68.10;;;;;;5053331;28;20037;-68
2023/03/29 03:27:47;;;;;;;5.90;2.42;;;3.00;68.40;;;;;;5053497;28;20033;-67
2023/03/29 03:30:13;;;;;;;6.40;2.15;;;3.00;68.60;;;;;;5053622;28;20044;-67
2023/03/29 03:32:40;;;;;;;8.90;2.50;;;3.00;68.80;;;;;;5052591;28;20029;-69
2023/03/29 03:35:06;;;;;;;8.48;2.20;;;3.00;68.90;;;;;;5053748;28;20045;-68
2023/03/29 03:37:32;;;;;;;5.70;2.55;;;2.90;69.10;;;;;;5053405;28;20060;-68
2023/03/29 03:39:58;;;;;;;8.45;2.47;;;2.90;68.90;;;;;;5054029;28;20461;-68
2023/03/29 03:42:27;;;;;;;7.70;2.53;;;2.90;69.10;;;;;;5053369;28;20053;-68
2023/03/29 03:44:53;;;;;;;4.20;2.10;;;2.90;69.10;;;;;;5053942;28;20048;-68
2023/03/29 03:47:19;;;;;;;5.85;2.15;;;2.90;69.10;;;;;;5052748;28;20021;-68
2023/03/29 03:49:44;;;;;;;9.05;2.60;;;2.90;69.10;;;;;;5053903;28;20064;-68
2023/03/29 03:52:10;;;;;;;7.38;3.08;;;2.90;69.10;;;;;;5052114;28;20398;-74
2023/03/29 03:54:36;;;;;;;6.43;2.42;;;2.90;69.30;;;;;;5054041;28;20033;-68
2023/03/29 03:57:02;;;;;;;7.57;2.38;;;2.90;69.40;;;;;;5057155;28;20035;-68
2023/03/29 03:59:28;;;;;;;7.80;2.33;;;2.90;69.40;;;;;;5056491;28;20021;-68
2023/03/29 04:01:53;;;;;;;4.97;2.13;;;2.90;69.40;;;;;;5058545;28;20065;-68
2023/03/29 04:04:19;;;;;;;5.97;2.22;;;2.90;69.20;;;;;;5057378;28;20040;-69
2023/03/29 04:06:45;;;;;;;5.40;2.15;;;2.90;68.90;;;;;;5058458;28;20495;-68
2023/03/29 04:09:11;;;;;;;5.93;2.30;;;2.90;68.90;;;;;;5058069;28;20028;-67
2023/03/29 04:11:37;;;;;;;5.50;2.28;;;2.90;69.10;;;;;;5057502;28;20454;-68
2023/03/29 04:14:03;;;;;;;6.93;2.83;;;2.80;69.00;;;;;;5057429;28;20098;-68
2023/03/29 04:16:29;;;;;;;9.40;2.08;;;2.80;68.90;;;;;;5053436;28;20101;-67
2023/03/29 04:18:55;;;;;;;4.22;2.03;;;2.80;69.00;;;;;;5053286;28;20033;-67
2023/03/29 04:21:21;;;;;;;11.40;2.88;;;2.80;68.60;;;;;;5051504;28;20031;-67
2023/03/29 04:23:46;;;;;;;8.93;2.90;;;2.80;68.50;;;;;;5052984;28;20448;-67
2023/03/29 04:26:14;;;;;;;7.90;2.60;;;2.80;68.40;;;;;;5052866;28;20033;-67
2023/03/29 04:28:40;;;;;;;8.50;2.55;;;2.80;68.30;;;;;;5052716;28;20052;-67
2023/03/29 04:31:13;;;;;;;8.05;2.30;;;2.80;68.20;;;;;;5052921;28;20028;-69
2023/03/29 04:33:39;;;;;;;7.50;3.00;;;2.80;68.30;;;;;;5052459;28;20422;-67
2023/03/29 04:36:05;;;;;;;7.53;2.75;;;2.80;68.10;;;;;;5053157;28;20124;-67
2023/03/29 04:38:34;;;;;;;8.07;2.28;;;2.80;68.20;;;;;;5051910;28;20063;-69
2023/03/29 04:41:02;;;;;;;7.05;2.10;;;2.80;68.40;;;;;;5052868;28;20133;-68
2023/03/29 04:43:29;;;;;;;5.10;2.40;;;2.90;69.30;;;;;;5051831;28;20048;-68
2023/03/29 04:45:56;;;;;;;7.47;3.10;;;2.90;68.80;;;;;;5052731;28;20377;-68
2023/03/29 04:48:22;;;;;;;7.50;2.40;;;2.90;68.30;;;;;;5052297;28;20029;-68
2023/03/29 04:50:48;;;;;;;9.23;2.33;;;2.90;68.10;;;;;;5052756;28;20114;-68
2023/03/29 04:53:14;;;;;;;3.90;2.08;;;2.90;68.10;;;;;;5052310;28;20036;-68
2023/03/29 04:55:40;;;;;;;5.88;2.00;;;2.90;68.00;;;;;;5050592;28;20040;-68
2023/03/29 04:58:06;;;;;;;9.07;2.28;;;3.00;67.90;;;;;;5052667;28;20128;-68
2023/03/29 05:00:32;;;;;;;10.32;2.35;;;3.00;67.60;;;;;;5052032;28;20104;-67
2023/03/29 05:02:58;;;;;;;7.22;2.80;;;3.00;67.50;;;;;;5052344;28;20028;-68
2023/03/29 05:05:24;;;;;;;9.57;3.17;;;3.00;67.90;;;;;;5051569;28;20028;-68
2023/03/29 05:07:50;;;;;;;6.85;2.90;;;3.10;68.60;;;;;;5052094;28;20029;-67
2023/03/29 05:10:16;;;;;;;8.10;3.15;;;3.10;69.00;;;;;;5052277;28;20032;-68
2023/03/29 05:12:42;;;;;;;12.38;4.15;;;3.00;69.20;;;;;;5052194;28;20103;-67
2023/03/29 05:15:08;;;;;;;7.75;3.58;;;3.00;70.00;;;;;;5052287;28;20116;-68
2023/03/29 05:17:34;;;;;;;10.45;3.80;;;3.00;70.60;;;;;;5052152;28;20503;-68
2023/03/29 05:20:00;;;;;;;9.45;3.78;;;3.00;71.00;;;;;;5052753;28;20025;-68
2023/03/29 05:22:27;;;;;;;12.45;3.92;;;2.90;71.30;;;;;;5051565;28;20079;-68
2023/03/29 05:24:53;;;;;;;8.20;3.28;;;2.90;71.30;;;;;;5053286;28;20059;-68
2023/03/29 05:27:21;;;;;;;10.07;3.75;;;2.90;71.60;;;;;;5053884;28;20027;-69
2023/03/29 05:29:47;;;;;;;7.88;3.17;;;2.90;71.80;;;;;;5056488;28;20033;-68
2023/03/29 05:32:13;;;;;;;12.27;2.90;;;2.90;72.20;;;;;;5056966;28;20030;-68
2023/03/29 05:34:39;;;;;;;10.20;3.05;;;2.90;72.30;;;;;;5051120;28;20389;-68
2023/03/29 05:37:05;;;;;;;10.65;4.03;;;2.90;72.00;;;;;;5052309;28;20110;-67
2023/03/29 05:39:32;;;;;;;11.20;3.83;;;2.90;72.50;;;;;;5051695;28;20021;-68
2023/03/29 05:41:58;;;;;;;12.05;3.25;;;2.90;72.60;;;;;;5051628;28;20025;-66
2023/03/29 05:44:24;;;;;;;9.05;3.53;;;2.90;72.80;;;;;;5050914;28;20052;-66
2023/03/29 05:46:50;;;;;;;9.40;3.35;;;3.00;73.00;;;;;;5055015;28;20032;-67
2023/03/29 05:49:17;;;;;;;10.73;3.63;;;3.00;72.90;;;;;;5055573;28;20104;-67
2023/03/29 05:51:44;;;;;;;5.60;2.83;;;3.10;72.80;;;;;;5055055;28;20053;-68
2023/03/29 05:54:10;;;;;;;8.45;3.33;;;3.10;72.30;;;;;;5055497;28;20108;-69
2023/03/29 05:56:36;;;;;;;8.32;2.85;;;3.10;71.70;;;;;;5055102;28;20159;-68
2023/03/29 05:59:01;;;;;;;12.43;3.58;;;3.20;71.60;;;;;;5055474;28;20373;-69
2023/03/29 06:01:27;;;;;;;11.35;3.47;;;3.20;71.40;;;;;;5054588;28;20025;-68
2023/03/29 06:03:53;;;;;;;10.73;3.65;;;3.20;71.50;;;;;;5055361;28;20484;-69
2023/03/29 06:06:20;;;;;;;13.57;3.65;;;3.30;71.70;;;;;;5053795;28;20025;-67
2023/03/29 06:08:46;;;;;;;7.22;2.97;;;3.40;71.40;;;;;;5054953;28;20025;-67
2023/03/29 06:11:12;;;;;;;9.07;3.30;;;3.40;71.10;;;;;;5055229;28;20029;-67
2023/03/29 06:13:38;;;;;;;6.45;2.90;;;3.50;70.40;;;;;;5053434;28;20116;-68
2023/03/29 06:16:05;;;;;;;11.27;3.50;;;3.50;69.70;;;;;;5055039;28;20460;-68
2023/03/29 06:18:34;;;;;;;7.88;3.42;;;3.60;70.00;;;;;;5054704;28;20060;-68
2023/03/29 06:21:03;;;;;;;6.93;2.90;;;3.60;69.70;;;;;;5054852;28;20112;-67
2023/03/29 06:23:29;;;;;;;7.43;2.97;;;3.70;69.60;;;;;;5053130;28;20025;-67
2023/03/29 06:25:55;;;;;;;9.77;3.15;;;3.80;70.00;;;;;;5054608;28;20539;-68
2023/03/29 06:28:21;;;;;;;8.13;3.55;;;3.90;69.30;;;;;;5054979;28;20029;-67
2023/03/29 06:30:48;;;;;;;9.50;3.55;;;3.90;68.80;;;;;;5054326;28;20158;-67
2023/03/29 06:33:15;;;;;;;8.02;2.88;;;4.00;68.30;;;;;;5054597;28;20029;-67
2023/03/29 06:35:44;;;;;;;10.60;3.55;;;4.10;67.70;;;;;;5053894;28;20032;-68
2023/03/29 06:38:10;;;;;;;8.85;3.17;;;4.30;67.20;;;;;;5053300;28;20025;-67
2023/03/29 06:40:38;;;;;;;9.50;3.00;;;4.30;67.10;;;;;;5054234;28;20032;-67
2023/03/29 06:43:04;;;;;;;6.00;2.50;;;4.50;66.30;;;;;;5054382;28;20033;-67
2023/03/29 06:45:35;;;;;;;9.30;2.67;;;4.50;65.20;;;;;;5053982;28;20504;-68
2023/03/29 06:48:02;;;;;;;10.25;2.60;;;4.70;64.70;;;;;;5054321;28;20079;-67
2023/03/29 06:50:29;;;;;;;5.22;2.55;;;4.80;64.50;;;;;;5053964;28;20474;-68
2023/03/29 06:52:56;;;;;;;7.13;2.50;;;5.00;64.70;;;;;;5054448;28;20025;-68
2023/03/29 06:55:22;;;;;;;10.07;2.60;;;5.20;64.40;;;;;;5054252;28;20120;-68
2023/03/29 06:57:48;;;;;;;8.07;2.65;;;5.30;63.30;;;;;;5053323;28;20033;-68
2023/03/29 07:00:17;;;;;;;5.88;2.00;;;5.40;62.60;;;;;;5054185;28;20079;-67
2023/03/29 07:02:43;;;;;;;8.60;2.03;;;5.60;60.20;;;;;;5053798;28;20481;-68
2023/03/29 07:05:10;;;;;;;5.00;2.03;;;5.70;59.40;;;;;;5054472;28;20051;-68
2023/03/29 07:07:58;;;;;;;4.47;1.92;;;5.80;58.70;;;;;;5052413;28;20053;-69
2023/03/29 07:10:30;;;;;;;7.75;2.20;;;5.80;57.70;;;;;;5054377;28;20056;-68
2023/03/29 07:12:58;;;;;;;8.95;2.10;;;5.90;58.00;;;;;;5054277;28;20033;-67
2023/03/29 07:15:25;;;;;;;4.70;1.90;;;6.00;58.10;;;;;;5054076;28;20032;-67
2023/03/29 07:17:50;;;;;;;5.18;2.08;;;6.00;57.50;;;;;;5054203;28;20033;-67
2023/03/29 07:20:16;;;;;;;7.13;1.80;;;6.00;57.60;;;;;;5053787;28;20355;-67
2023/03/29 07:22:46;;;;;;;5.05;1.80;;;6.00;56.90;;;;;;5053615;28;20037;-67
2023/03/29 07:25:12;;;;;;;7.97;2.08;;;6.10;57.00;;;;;;5054062;28;20033;-68
2023/03/29 07:27:40;;;;;;;8.07;1.95;;;6.10;56.70;;;;;;5053345;28;20056;-68
2023/03/29 07:30:09;;;;;;;5.72;1.88;;;6.20;57.00;;;;;;5053807;28;20036;-69
2023/03/29 07:32:36;;;;;;;6.20;2.17;;;6.20;56.60;;;;;;5053258;28;20029;-68
2023/03/29 07:35:04;;;;;;;5.40;2.20;;;6.20;56.00;;;;;;5053872;28;20111;-68
2023/03/29 07:37:31;;;;;;;7.20;2.15;;;6.30;56.30;;;;;;5053403;28;20117;-68
2023/03/29 07:39:56;;;;;;;3.83;2.15;;;6.30;55.70;;;;;;5053685;28;20032;-67
2023/03/29 07:42:22;;;;;;;4.63;1.70;;;6.40;55.70;;;;;;5053315;28;20026;-67
2023/03/29 07:44:48;;;;;;;5.03;1.92;;;6.50;55.10;;;;;;5051982;28;20057;-67
2023/03/29 07:47:14;;;;;;;4.18;1.80;;;6.60;54.90;;;;;;5053507;28;20025;-68
2023/03/29 07:49:41;;;;;;;6.38;2.20;;;6.60;55.10;;;;;;5053216;28;20155;-68
2023/03/29 07:52:07;;;;;;;4.40;2.00;;;6.70;54.80;;;;;;5053478;28;20029;-68
2023/03/29 07:54:33;;;;;;;3.33;2.00;;;6.70;54.60;;;;;;5053094;28;20037;-69
2023/03/29 07:56:59;;;;;;;6.65;2.00;;;6.70;54.30;;;;;;5053498;28;20040;-67
2023/03/29 07:59:26;;;;;;;8.52;1.77;;;6.80;53.90;;;;;;5053385;28;20035;-67
2023/03/29 08:01:52;;;;;;;6.25;1.98;;;6.80;53.70;;;;;;5052899;28;20029;-68
2023/03/29 08:04:18;;;;;;;5.65;2.42;;;6.80;54.20;;;;;;5053112;28;20495;-68
2023/03/29 08:06:43;;;;;;;7.22;2.30;;;6.90;53.80;;;;;;5052986;28;20029;-68
2023/03/29 08:09:09;;;;;;;4.57;1.90;;;6.90;54.20;;;;;;5052437;28;20099;-67
2023/03/29 08:11:37;;;;;;;7.07;2.35;;;7.00;53.80;;;;;;5052524;28;20021;-68
2023/03/29 08:14:02;;;;;;;5.43;2.05;;;7.00;53.60;;;;;;5051944;28;20112;-67
2023/03/29 08:16:28;;;;;;;8.82;2.90;;;7.10;53.90;;;;;;5052687;28;20104;-67
2023/03/29 08:18:54;;;;;;;9.93;2.88;;;7.20;54.10;;;;;;5052680;28;20053;-67
2023/03/29 08:21:20;;;;;;;7.38;2.17;;;7.40;53.70;;;;;;5052779;28;20021;-67
2023/03/29 08:23:45;;;;;;;4.40;2.33;;;7.60;53.70;;;;;;5052507;28;20025;-67
2023/03/29 08:26:12;;;;;;;8.35;2.63;;;7.70;53.30;;;;;;5053061;28;20504;-68
2023/03/29 08:28:38;;;;;;;4.38;2.00;;;7.80;52.70;;;;;;5052495;28;20032;-68
2023/03/29 08:31:05;;;;;;;5.50;2.42;;;7.80;51.60;;;;;;5052235;28;20028;-68
2023/03/29 08:33:31;;;;;;;4.07;1.88;;;7.80;51.10;;;;;;5052359;28;20326;-70
2023/03/29 08:35:57;;;;;;;3.47;1.80;;;7.90;51.00;;;;;;5052668;28;20024;-67
2023/03/29 08:38:22;;;;;;;7.57;2.15;;;7.90;50.30;;;;;;5053112;28;20025;-68
2023/03/29 08:40:49;;;;;;;8.15;2.13;;;7.90;50.70;;;;;;5052848;28;20025;-67
2023/03/29 08:43:56;;;;;;;7.53;2.20;;;7.90;50.70;;;;;;5053502;28;20461;-66
2023/03/29 08:46:56;;;;;;;8.23;2.17;;;8.00;51.00;;;;;;5012563;28;20037;-67
2023/03/29 08:49:22;;;;;;;4.00;2.22;;;8.00;50.90;;;;;;5053191;28;20044;-67
2023/03/29 08:51:57;;;;;;;10.15;1.95;;;8.00;51.00;;;;;;5053549;28;20083;-67
2023/03/29 08:54:26;;;;;;;3.75;1.88;;;8.00;51.00;;;;;;5053773;28;20025;-67
2023/03/29 08:56:56;;;;;;;5.80;1.80;;;8.00;51.40;;;;;;5051988;28;20510;-67
2023/03/29 08:59:28;;;;;;;6.20;1.95;;;8.10;51.00;;;;;;5052466;28;20025;-67
2023/03/29 09:01:55;;;;;;;;;;;8.10;50.70;;;;;;5052581;28;20029;-68
2023/03/29 09:04:32;;;;;;;7.32;1.80;;;8.20;51.20;;;;;;5052065;28;19951;-66
2023/03/29 09:06:58;;;;;;;3.35;1.95;;;8.30;50.10;;;;;;5051932;28;20025;-68
2023/03/29 09:09:31;;;;;;;5.80;2.15;;;8.30;49.80;;;;;;5052015;28;20029;-67
2023/03/29 09:12:00;;;;;;;8.48;2.20;;;8.30;49.90;;;;;;5051989;28;20033;-67
2023/03/29 09:14:32;;;;;;;7.47;2.03;;;8.30;50.40;;;;;;5052270;28;20025;-67
2023/03/29 09:17:19;;;;;;;7.28;2.33;;;8.30;49.30;;;;;;5051572;28;20033;-68
2023/03/29 09:19:55;;;;;;;6.60;2.30;;;8.40;49.10;;;;;;5053603;28;20053;-66
2023/03/29 09:22:50;;;;;;;7.35;2.20;;;8.40;49.10;;;;;;5056554;28;20040;-68
2023/03/29 09:25:29;;;;;;;4.78;2.10;;;8.40;49.50;;;;;;5055011;28;20037;-68
2023/03/29 09:28:12;;;;;;;6.90;2.00;;;8.40;49.50;;;;;;5055776;28;20037;-67
2023/03/29 09:30:48;;;;;;;6.47;2.05;;;8.40;49.40;;;;;;5055923;28;20029;-67
2023/03/29 09:33:27;;;;;;;7.57;2.10;;;8.40;49.40;;;;;;5056079;28;20025;-67
2023/03/29 09:36:05;;;;;;;6.65;2.08;;;8.40;48.90;;;;;;5055730;28;20043;-67
2023/03/29 09:38:36;;;;;;;4.05;1.75;;;8.40;48.80;;;;;;5056214;28;20029;-67
2023/03/29 09:41:12;;;;;;;4.93;2.15;;;8.40;48.60;;;;;;5055449;28;20525;-67
2023/03/29 09:43:41;;;;;;;3.50;1.70;;;8.40;49.20;;;;;;5055238;28;20124;-70
2023/03/29 09:46:47;;;;;;;6.30;2.00;;;8.40;49.70;;;;;;5055952;28;20025;-67
2023/03/29 09:49:19;;;;;;;4.38;2.25;;;8.40;49.10;;;;;;5054959;28;20045;-67
2023/03/29 09:51:48;;;;;;;6.25;2.08;;;8.40;49.10;;;;;;5055364;28;20418;-67
2023/03/29 09:54:14;;;;;;;4.45;2.05;;;8.50;49.80;;;;;;5055490;28;20017;-68
2023/03/29 09:56:40;;;;;;;7.13;2.35;;;8.50;50.10;;;;;;5055085;28;20091;-68
2023/03/29 09:59:09;;;;;;;8.98;4.10;;;8.60;50.20;;;;;;5055643;28;20035;-67
2023/03/29 10:01:45;;;;;;;6.75;2.38;;;8.60;49.80;;;;;;5055648;28;20187;-67
2023/03/29 10:04:12;;;;;;;5.07;1.75;;;8.60;49.90;;;;;;5055754;28;20017;-68
2023/03/29 10:06:46;;;;;;;5.65;1.90;;;8.60;49.80;;;;;;5055203;28;20424;-70
2023/03/29 10:09:19;;;;;;;4.50;1.90;;;8.60;49.90;;;;;;5055544;28;20032;-67
2023/03/29 10:11:55;;;;;;;8.07;2.47;;;8.60;50.20;;;;;;5054858;28;20478;-68
2023/03/29 10:14:43;;;;;;;5.75;2.13;;;8.60;49.60;;;;;;5055306;28;20031;-68
2023/03/29 10:17:17;;;;;;;4.85;1.70;;;8.60;49.30;;;;;;5055434;28;20037;-68
2023/03/29 10:20:03;;;;;;;6.95;2.00;;;8.60;49.50;;;;;;5054851;28;20036;-68
2023/03/29 10:22:36;;;;;;;6.80;2.55;;;8.60;49.80;;;;;;5055209;28;20033;-67
2023/03/29 10:25:03;;;;;;;7.68;2.13;;;8.50;49.70;;;;;;5054828;28;20033;-67
2023/03/29 10:27:33;;;;;;;7.95;2.22;;;8.50;49.60;;;;;;5055059;28;20024;-67
2023/03/29 10:30:11;;;;;;;4.40;2.50;;;8.50;50.00;;;;;;5054500;28;20530;-67
2023/03/29 10:32:38;;;;;;;4.53;2.13;;;8.50;50.30;;;;;;5054296;28;20029;-68
2023/03/29 10:35:32;;;;;;;8.05;2.05;;;8.60;50.20;;;;;;5054529;28;20029;-68
2023/03/29 10:37:58;;;;;;;6.28;2.30;;;8.60;50.00;;;;;;5054843;28;20508;-68
2023/03/29 10:40:24;;;;;;;6.15;1.92;;;8.60;50.00;;;;;;5055005;28;20047;-68
2023/03/29 10:42:50;;;;;;;4.65;2.10;;;8.60;49.80;;;;;;5054501;28;20473;-68
2023/03/29 10:45:26;;;;;;;3.58;1.95;;;8.60;49.90;;;;;;5054856;28;20052;-68
2023/03/29 10:47:55;;;;;;;3.78;1.80;;;8.60;49.70;;;;;;5054301;28;20025;-68
2023/03/29 10:50:20;;;;;;;5.57;1.90;;;8.70;49.50;;;;;;5054894;28;20025;-68
2023/03/29 10:52:48;;;;;;;3.45;2.08;;;8.60;49.80;;;;;;5054149;28;20421;-68
2023/03/29 10:55:14;;;;;;;6.47;2.83;;;8.70;49.50;;;;;;5054470;28;20052;-68
2023/03/29 10:57:49;;;;;;;6.85;2.38;;;8.70;49.60;;;;;;5054810;28;20025;-67
2023/03/29 11:00:44;;;;;;;4.38;2.00;;;8.70;49.50;;;;;;5054621;28;20037;-68
2023/03/29 11:03:19;;;;;;;5.80;1.95;;;8.70;49.20;;;;;;5054635;28;20021;-67
2023/03/29 11:05:56;;;;;;;7.78;2.38;;;8.70;49.40;;;;;;5054054;28;20490;-68
2023/03/29 11:08:43;;;;;;;3.95;1.58;;;8.70;49.60;;;;;;5054237;28;20025;-68
2023/03/29 11:11:18;;;;;;;4.72;1.88;;;8.70;50.10;;;;;;5054283;28;20040;-67
2023/03/29 11:13:54;;;;;;;5.88;2.55;;;8.80;50.10;;;;;;5053804;28;20036;-69
2023/03/29 11:16:23;;;;;;;4.00;1.50;;;8.80;50.90;;;;;;5054428;28;20033;-67
2023/03/29 11:19:20;;;;;;;2.88;1.33;;;8.80;51.30;;;;;;5053751;28;20034;-68
2023/03/29 11:21:50;;;;;;;5.30;1.77;;;8.90;51.40;;;;;;5053589;28;20067;-68
2023/03/29 11:24:27;;;;;;;3.75;1.50;;;8.80;51.60;;;;;;5053893;28;20025;-68
2023/03/29 11:27:04;;;;;;;4.40;1.50;;;8.80;51.90;;;;;;5053321;28;20529;-68
2023/03/29 11:29:33;;;;;;;3.97;1.60;;;8.80;52.40;;;;;;5054302;28;20036;-67
2023/03/29 11:31:58;;;;;;;4.07;1.63;;;8.80;52.90;;;;;;5052872;28;20049;-67
2023/03/29 11:34:41;;;;;;;4.85;1.65;;;8.90;53.60;;;;;;5053797;28;20454;-68
2023/03/29 11:37:19;;;;;;;3.05;1.50;;;8.90;54.10;;;;;;5053490;28;20036;-67
2023/03/29 11:40:00;;;;;;;5.50;1.67;;;8.90;55.00;;;;;;5052081;28;20144;-72
2023/03/29 11:42:31;;;;;;;4.85;1.60;;;8.90;55.60;;;;;;5053502;28;20044;-68
2023/03/29 11:44:59;;;;;;;6.95;2.00;;;9.00;55.70;;;;;;5052840;28;20085;-68
2023/03/29 11:47:30;;;;;;;4.40;1.80;;;9.00;56.20;;;;;;5053371;28;20033;-68
2023/03/29 11:49:58;;;;;;;;;;;8.90;57.10;;;;;;5053364;28;20082;-68
2023/03/29 11:52:38;;;;;;;1.98;1.40;;;9.00;57.00;;;;;;5053050;28;20007;-68
2023/03/29 11:55:13;;;;;;;3.80;1.65;;;9.10;57.70;;;;;;5051387;28;20532;-67
2023/03/29 11:57:58;;;;;;;4.70;1.48;;;9.10;58.20;;;;;;5053255;28;20029;-68
2023/03/29 12:00:45;;;;;;;3.75;1.58;;;9.20;58.60;;;;;;5053102;28;20299;-68
2023/03/29 12:03:42;;;;;;;2.38;1.40;;;9.10;59.40;;;;;;5052390;28;20063;-66
2023/03/29 12:06:28;;;;;;;3.92;1.30;;;9.20;60.20;;;;;;5047458;28;20432;-67
2023/03/29 12:08:57;;;;;;;2.47;1.23;;;9.20;61.10;;;;;;5052662;28;20522;-67
2023/03/29 12:12:01;;;;;;;3.47;1.30;;;9.20;61.00;;;;;;5052809;28;20028;-67
2023/03/29 12:14:41;;;;;;;3.78;1.40;;;9.10;62.00;;;;;;5046152;28;20052;-67
2023/03/29 12:17:13;;;;;;;2.03;1.38;;;9.10;63.10;;;;;;5052743;28;20100;-68
2023/03/29 12:20:01;;;;;;;2.63;1.20;;;9.10;64.10;;;;;;5052896;28;20029;-68
2023/03/29 12:22:27;;;;;;;1.67;1.30;;;9.10;65.00;;;;;;5052919;28;20025;-67
2023/03/29 12:24:54;;;;;;;3.17;1.30;;;9.10;65.10;;;;;;5052301;28;20385;-68
2023/03/29 12:27:28;;;;;;;4.40;1.55;;;9.10;66.30;;;;;;5052765;28;20029;-67
2023/03/29 12:30:01;;;;;;;2.17;1.20;;;9.10;66.40;;;;;;5052150;28;20091;-68
2023/03/29 12:32:47;;;;;;;1.20;1.10;;;9.00;67.80;;;;;;5052542;28;20021;-68
2023/03/29 12:35:32;;;;;;;2.42;0.90;;;9.00;67.50;;;;;;5052355;28;20061;-68
2023/03/29 12:38:27;;;;;;;3.47;1.25;;;9.00;68.60;;;;;;5052077;28;20037;-68
2023/03/29 12:41:03;;;;;;;2.75;1.08;;;9.00;68.80;;;;;;5051781;28;20028;-68
2023/03/29 12:43:37;;;;;;;4.43;1.50;;;9.00;68.40;;;;;;5052221;28;20504;-67
2023/03/29 12:46:10;;;;;;;1.55;1.20;;;9.00;69.00;;;;;;5050848;28;20029;-68
2023/03/29 12:48:40;;;;;;;2.92;1.20;;;9.00;69.60;;;;;;5052112;28;20120;-68
2023/03/29 12:51:16;;;;;;;1.40;1.17;;;9.00;69.30;;;;;;5050722;28;20365;-66
2023/03/29 12:53:51;;;;;;;2.83;1.50;;;9.10;68.90;;;;;;5051499;28;20021;-66
2023/03/29 12:56:21;;;;;;;4.40;1.35;;;9.00;69.50;;;;;;5051974;28;20029;-66
2023/03/29 12:59:16;;;;;;;3.58;1.50;;;9.00;69.30;;;;;;5051880;28;20033;-67
2023/03/29 13:01:57;;;;;;;3.28;2.03;;;9.00;69.10;;;;;;5052066;28;20033;-67
2023/03/29 13:04:48;;;;;;;2.38;1.27;;;9.00;69.10;;;;;;5052383;28;20040;-69
2023/03/29 13:07:34;;;;;;;2.22;1.15;;;9.00;69.00;;;;;;5054095;28;20086;-68
2023/03/29 13:10:33;;;;;;;3.65;1.70;;;9.10;69.90;;;;;;5046736;28;20040;-68
2023/03/29 13:13:13;;;;;;;2.72;1.65;;;9.10;69.90;;;;;;5054837;28;20032;-68
2023/03/29 13:15:39;;;;;;;3.10;1.85;;;9.10;69.60;;;;;;5054165;28;20036;-68
2023/03/29 13:18:20;;;;;;;4.80;1.70;;;9.10;69.70;;;;;;5053081;28;20041;-68